createdAt,value
2023-03-06T00:06:19.536Z,3.10
2023-03-06T00:13:22.971Z,2.90
2023-03-06T00:20:27.168Z,3.53
2023-03-06T00:27:30.451Z,3.60
2023-03-06T00:34:33.664Z,3.50
2023-03-06T00:41:36.826Z,2.90
2023-03-06T00:48:40.293Z,3.50
2023-03-06T00:55:43.658Z,3.67
2023-03-06T01:02:47.099Z,3.30
2023-03-06T01:09:50.256Z,4.03
2023-03-06T01:16:53.432Z,4.77
2023-03-06T01:23:56.560Z,5.00
2023-03-06T01:30:59.722Z,5.10
2023-03-06T01:38:05.256Z,5.13
2023-03-06T01:45:26.978Z,5.10
2023-03-06T01:52:35.587Z,4.40
2023-03-06T01:59:52.902Z,3.20
2023-03-06T02:06:56.190Z,4.53
2023-03-06T02:13:59.461Z,3.17
2023-03-06T02:21:08.972Z,4.83
2023-03-06T02:28:13.559Z,3.03
2023-03-06T02:35:17.443Z,4.30
2023-03-06T02:42:21.496Z,3.23
2023-03-06T02:49:26.452Z,2.60
2023-03-06T02:56:30.015Z,3.03
2023-03-06T03:03:33.369Z,2.30
2023-03-06T03:10:36.860Z,2.97
2023-03-06T03:17:40.073Z,2.37
2023-03-06T03:24:44.019Z,2.80
2023-03-06T03:31:47.336Z,2.10
2023-03-06T03:38:50.576Z,1.37
2023-03-06T03:45:53.692Z,2.07
2023-03-06T03:52:56.902Z,3.30
2023-03-06T04:00:00.085Z,2.90
2023-03-06T04:07:04.336Z,3.20
2023-03-06T04:14:09.748Z,1.90
2023-03-06T04:21:13.588Z,2.53
2023-03-06T04:28:16.696Z,1.50
2023-03-06T04:35:20.107Z,1.53
2023-03-06T04:42:34.160Z,2.00
2023-03-06T04:49:37.420Z,1.60
2023-03-06T04:56:40.811Z,1.07
2023-03-06T05:03:49.715Z,1.63
2023-03-06T05:10:52.888Z,1.77
2023-03-06T05:17:56.550Z,1.50
2023-03-06T05:24:59.752Z,1.47
2023-03-06T05:32:03.246Z,2.13
2023-03-06T05:39:06.641Z,2.00
2023-03-06T05:46:10.738Z,2.13
2023-03-06T05:53:15.170Z,3.13
2023-03-06T06:00:18.573Z,2.10
2023-03-06T06:07:21.997Z,2.50
2023-03-06T06:14:25.221Z,2.73
2023-03-06T06:21:30.378Z,2.80
2023-03-06T06:28:33.596Z,2.00
2023-03-06T06:35:37.225Z,3.07
2023-03-06T06:42:40.581Z,2.30
2023-03-06T06:49:43.741Z,2.10
2023-03-06T06:56:47.273Z,2.57
2023-03-06T07:03:50.538Z,2.00
2023-03-06T07:10:53.805Z,3.20
2023-03-06T07:17:56.996Z,3.23
2023-03-06T07:25:00.313Z,1.90
2023-03-06T07:32:03.578Z,2.87
2023-03-06T07:39:06.906Z,1.60
2023-03-06T07:46:10.885Z,2.30
2023-03-06T07:53:15.764Z,2.10
2023-03-06T08:00:19.142Z,3.70
2023-03-06T08:07:25.022Z,1.87
2023-03-06T08:14:28.213Z,2.43
2023-03-06T08:21:31.466Z,2.60
2023-03-06T08:28:36.663Z,2.27
2023-03-06T08:35:40.482Z,3.23
2023-03-06T08:42:44.108Z,3.87
2023-03-06T08:49:49.637Z,2.77
2023-03-06T08:56:53.280Z,2.10
2023-03-06T09:03:56.565Z,2.60
2023-03-06T09:11:00.850Z,1.60
2023-03-06T09:18:04.175Z,2.00
2023-03-06T09:25:07.556Z,1.60
2023-03-06T09:32:17.162Z,1.50
2023-03-06T09:39:21.750Z,2.50
2023-03-06T09:46:27.245Z,1.70
2023-03-06T09:54:15.958Z,1.20
2023-03-06T10:01:36.770Z,1.90
2023-03-06T10:09:00.521Z,1.43
2023-03-06T10:16:24.614Z,1.97
2023-03-06T10:24:21.603Z,1.40
2023-03-06T10:32:03.544Z,1.37
2023-03-06T10:39:28.333Z,1.00
2023-03-06T10:46:32.220Z,1.67
2023-03-06T10:53:38.143Z,0.93
2023-03-06T11:00:54.497Z,1.30
2023-03-06T11:08:19.412Z,1.47
2023-03-06T11:15:26.796Z,1.50
2023-03-06T11:22:35.256Z,1.40
2023-03-06T11:29:43.591Z,1.23
2023-03-06T11:36:57.453Z,1.40
2023-03-06T11:44:25.686Z,1.50
2023-03-06T11:51:36.784Z,1.40
2023-03-06T11:58:50.999Z,1.70
2023-03-06T12:06:15.281Z,1.43
2023-03-06T12:13:47.812Z,1.20
2023-03-06T12:21:26.962Z,1.60
2023-03-06T12:28:39.748Z,2.10
2023-03-06T12:36:12.436Z,1.23
2023-03-06T12:43:24.452Z,1.33
2023-03-06T12:50:37.039Z,1.63
2023-03-06T12:58:01.076Z,1.40
2023-03-06T13:05:09.947Z,1.80
2023-03-06T13:12:54.214Z,2.73
2023-03-06T13:20:14.848Z,0.90
2023-03-06T13:27:27.099Z,1.70
2023-03-06T13:34:31.571Z,2.33
2023-03-06T13:41:54.776Z,1.80
2023-03-06T13:49:36.728Z,1.87
2023-03-06T13:56:58.464Z,1.60
2023-03-06T14:04:46.232Z,2.50
2023-03-06T14:12:24.000Z,2.60
2023-03-06T14:19:41.323Z,1.47
2023-03-06T14:26:48.212Z,5.77
2023-03-06T14:33:57.204Z,1.53
2023-03-06T14:41:02.946Z,1.50
2023-03-06T14:48:31.767Z,1.60
2023-03-06T14:55:37.766Z,1.20
2023-03-06T15:02:50.427Z,1.40
2023-03-06T15:10:23.938Z,1.90
2023-03-06T15:17:30.503Z,1.40
2023-03-06T15:24:43.942Z,1.40
2023-03-06T15:31:47.302Z,0.80
2023-03-06T15:38:59.860Z,1.10
2023-03-06T15:46:15.231Z,0.77
2023-03-06T15:53:19.572Z,0.60
2023-03-06T16:00:28.545Z,1.30
2023-03-06T16:07:32.246Z,1.40
2023-03-06T16:14:36.756Z,1.10
2023-03-06T16:21:40.125Z,1.90
2023-03-06T16:28:52.814Z,0.93
2023-03-06T16:35:55.967Z,1.93
2023-03-06T16:42:59.462Z,0.70
2023-03-06T16:50:03.389Z,1.03
2023-03-06T16:57:06.824Z,0.73
2023-03-06T17:04:11.167Z,0.53
2023-03-06T17:11:17.170Z,2.20
2023-03-06T17:18:20.347Z,1.50
2023-03-06T17:25:24.616Z,1.30
2023-03-06T17:32:29.852Z,1.00
2023-03-06T17:39:33.350Z,1.70
2023-03-06T17:46:39.677Z,1.33
2023-03-06T17:53:42.871Z,1.27
2023-03-06T18:00:46.236Z,1.33
2023-03-06T18:07:49.464Z,1.50
2023-03-06T18:14:52.952Z,2.03
2023-03-06T18:21:56.211Z,2.57
2023-03-06T18:29:01.269Z,2.20
2023-03-06T18:36:06.054Z,3.77
2023-03-06T18:43:10.199Z,3.50
2023-03-06T18:50:17.418Z,4.00
2023-03-06T18:57:23.468Z,4.20
2023-03-06T19:04:26.680Z,3.70
2023-03-06T19:11:29.893Z,4.77
2023-03-06T19:18:33.109Z,5.20
2023-03-06T19:25:36.322Z,5.63
2023-03-06T19:32:41.907Z,5.50
2023-03-06T19:39:45.559Z,5.60
2023-03-06T19:46:48.731Z,4.50
2023-03-06T19:53:51.899Z,5.17
2023-03-06T20:00:55.201Z,7.70
2023-03-06T20:07:58.323Z,5.80
2023-03-06T20:15:03.765Z,5.30
2023-03-06T20:22:08.145Z,5.47
2023-03-06T20:29:11.286Z,5.97
2023-03-06T20:36:14.834Z,5.27
2023-03-06T20:43:25.252Z,5.97
2023-03-06T20:50:28.502Z,4.80
2023-03-06T20:57:34.853Z,5.20
2023-03-06T21:04:40.845Z,5.50
2023-03-06T21:11:44.603Z,4.80
2023-03-06T21:18:47.770Z,5.00
2023-03-06T21:25:50.956Z,4.43
2023-03-06T21:32:54.110Z,4.43
2023-03-06T21:39:57.834Z,4.67
2023-03-06T21:47:01.056Z,4.10
2023-03-06T21:54:04.228Z,4.80
2023-03-06T22:01:08.545Z,3.40
2023-03-06T22:08:16.157Z,4.00
2023-03-06T22:15:21.689Z,4.23
2023-03-06T22:22:25.552Z,3.60
2023-03-06T22:29:30.351Z,3.40
2023-03-06T22:36:34.040Z,3.03
2023-03-06T22:43:37.198Z,2.80
2023-03-06T22:50:40.604Z,3.50
2023-03-06T22:57:43.776Z,3.97
2023-03-06T23:04:52.227Z,3.97
2023-03-06T23:11:55.515Z,3.80
2023-03-06T23:18:58.731Z,3.57
2023-03-06T23:26:02.002Z,3.67
2023-03-06T23:33:11.780Z,5.17
2023-03-06T23:40:16.196Z,5.37
2023-03-06T23:47:20.281Z,5.93
2023-03-06T23:54:23.770Z,6.90
